Retour à l'actu

LFPG

METAR

LFPG 120400Z 24005KT CAVOK 01/M01 Q1026 NOSIG

TAF

LFPG 112300Z
  • | 1200/1306 30005KT CAVOK TX11/1214Z TNM00/1204Z
  • | PROB40 TEMPO 1212/1218 SCT030TCU
  • | PROB30 TEMPO 1214/1218 30015G25KT 4000 SHRA SCT020CB